Time;durP1;ratioP1;P1;durP2;ratioP2;P2;SDS_P1;SDS_P2;PMS_P1;PMS_P2;Temp;Humidity;BMP_temperature;BMP_pressure;BME280_temperature;BME280_humidity;BME280_pressure;Samples;Min_cycle;Max_cycle;Signal;HPM_P1;HPM_P2
2022/08/28 00:02:25;;;;;;;7.88;3.33;;;;;;;18.19;58.62;101638.31;3591399;39;20063;-63
2022/08/28 00:04:51;;;;;;;8.55;3.50;;;;;;;18.22;59.05;101657.13;3593348;39;20051;-63
2022/08/28 00:07:17;;;;;;;8.50;3.30;;;;;;;18.14;59.24;101662.34;3588264;39;20100;-63
2022/08/28 00:09:43;;;;;;;7.45;3.28;;;;;;;18.06;59.39;101659.34;3592183;39;20052;-63
2022/08/28 00:12:09;;;;;;;8.40;3.40;;;;;;;18.04;59.04;101658.59;3589388;39;20105;-63
2022/08/28 00:14:34;;;;;;;9.70;3.90;;;;;;;17.99;59.78;101660.84;3589824;39;20051;-63
2022/08/28 00:17:00;;;;;;;8.73;3.60;;;;;;;17.97;59.34;101660.09;3590459;39;20055;-63
2022/08/28 00:19:26;;;;;;;12.20;4.18;;;;;;;17.90;59.86;101662.44;3589919;39;20071;-63
2022/08/28 00:21:53;;;;;;;9.07;3.78;;;;;;;17.72;60.08;101642.94;3589632;39;20075;-63
2022/08/28 00:24:19;;;;;;;8.30;3.83;;;;;;;17.84;60.48;101668.34;3586578;39;20311;-63
2022/08/28 00:29:30;;;;;;;11.90;4.25;;;;;;;17.80;59.82;101656.84;3588384;39;20909;-63
2022/08/28 00:31:57;;;;;;;10.75;3.80;;;;;;;17.74;60.46;101665.47;3591356;39;20044;-64
2022/08/28 00:34:24;;;;;;;10.15;4.15;;;;;;;17.38;60.58;101612.13;3589832;39;20084;-62
2022/08/28 00:36:49;;;;;;;10.50;4.18;;;;;;;17.63;61.06;101668.13;3593345;39;20051;-62
2022/08/28 00:39:15;;;;;;;7.30;4.18;;;;;;;17.59;60.46;101670.25;3589929;39;20064;-63
2022/08/28 00:41:41;;;;;;;8.85;3.72;;;;;;;17.55;60.70;101673.31;3592007;39;20044;-63
2022/08/28 00:44:17;;;;;;;9.70;3.67;;;;;;;17.50;60.93;101665.50;3589370;39;20048;-63
2022/08/28 00:46:48;;;;;;;9.50;3.88;;;;;;;17.46;61.46;101674.03;3590375;39;20107;-63
2022/08/28 00:49:18;;;;;;;10.52;3.85;;;;;;;17.40;62.19;101669.94;3589097;39;20943;-63
2022/08/28 00:52:06;;;;;;;11.27;4.07;;;;;;;17.35;62.01;101667.59;3589871;39;20067;-62
2022/08/28 00:54:41;;;;;;;8.40;4.03;;;;;;;17.25;61.89;101666.53;3592179;39;20056;-62
2022/08/28 00:57:16;;;;;;;9.55;4.22;;;;;;;17.22;62.38;101666.81;3592955;39;20372;-63
2022/08/28 00:59:43;;;;;;;10.95;4.07;;;;;;;17.18;62.16;101670.72;3592718;39;20048;-63
2022/08/28 01:02:08;;;;;;;10.90;4.78;;;;;;;17.14;62.93;101674.66;3593255;39;20047;-63
2022/08/28 01:04:36;;;;;;;10.05;4.35;;;;;;;17.08;63.01;101677.84;3593594;39;20409;-62
2022/08/28 01:07:09;;;;;;;7.60;4.18;;;;;;;16.90;63.28;101664.69;3593614;39;20063;-63
2022/08/28 01:09:42;;;;;;;;;;;;;;;16.97;63.98;101689.53;3595543;39;20414;-63
2022/08/28 01:12:16;;;;;;;11.18;4.45;;;;;;;16.97;63.93;101684.09;3592969;39;19963;-63
2022/08/28 01:14:46;;;;;;;10.93;4.40;;;;;;;16.98;63.35;101685.81;3593394;39;20060;-63
2022/08/28 01:17:16;;;;;;;9.85;4.20;;;;;;;16.96;64.21;101686.91;3593371;39;20039;-63
2022/08/28 01:19:55;;;;;;;11.05;4.25;;;;;;;16.95;63.56;101680.63;3594105;39;20148;-63
2022/08/28 01:22:49;;;;;;;11.38;5.20;;;;;;;16.94;63.90;101678.88;3594394;39;20059;-63
2022/08/28 01:25:23;;;;;;;11.70;4.20;;;;;;;16.92;63.74;101687.13;3592343;39;20064;-63
2022/08/28 01:27:48;;;;;;;9.65;4.15;;;;;;;16.92;63.95;101681.72;3593703;39;20485;-63
2022/08/28 01:30:20;;;;;;;14.15;4.40;;;;;;;16.88;64.26;101679.34;3591108;39;20133;-63
2022/08/28 01:32:52;;;;;;;9.50;3.78;;;;;;;16.86;64.47;101682.16;3595464;39;20071;-63
2022/08/28 01:35:30;;;;;;;9.63;4.32;;;;;;;16.85;64.40;101690.44;3592782;39;20067;-63
2022/08/28 01:37:57;;;;;;;10.90;4.40;;;;;;;16.83;64.29;101690.53;3582642;39;20055;-63
2022/08/28 01:40:39;;;;;;;11.27;4.30;;;;;;;16.78;64.55;101689.13;3590085;39;20056;-63
2022/08/28 01:43:22;;;;;;;10.85;4.10;;;;;;;16.76;64.16;101691.97;3591073;39;20128;-63
2022/08/28 01:45:54;;;;;;;9.23;4.10;;;;;;;16.73;64.52;101689.47;3595505;39;20051;-63
2022/08/28 01:48:23;;;;;;;10.80;3.97;;;;;;;16.73;65.14;101697.59;3590998;39;20062;-63
2022/08/28 01:50:50;;;;;;;9.20;3.97;;;;;;;16.74;65.07;101699.31;3591337;39;20109;-63
2022/08/28 01:53:22;;;;;;;13.88;4.60;;;;;;;16.75;65.02;101701.13;3592672;39;20378;-63
2022/08/28 01:55:48;;;;;;;9.18;3.95;;;;;;;16.69;65.44;101694.25;3595176;39;20259;-63
2022/08/28 01:58:15;;;;;;;10.20;4.38;;;;;;;16.71;65.01;101699.56;3591498;39;20159;-63
2022/08/28 02:00:41;;;;;;;9.95;4.13;;;;;;;16.62;65.14;101683.97;3590422;39;20070;-62
2022/08/28 02:03:09;;;;;;;9.80;3.88;;;;;;;16.68;65.01;101699.78;3591882;39;20107;-63
2022/08/28 02:05:35;;;;;;;11.52;4.25;;;;;;;16.64;65.68;101699.13;3591827;39;20067;-62
2022/08/28 02:08:04;;;;;;;14.02;4.40;;;;;;;16.66;65.61;101701.75;3592242;39;20052;-63
2022/08/28 02:10:34;;;;;;;8.68;3.90;;;;;;;16.67;65.35;101704.34;3589241;39;20390;-63
2022/08/28 02:13:01;;;;;;;9.57;3.90;;;;;;;16.68;65.31;101705.22;3587319;39;20048;-63
2022/08/28 02:15:29;;;;;;;10.85;4.18;;;;;;;16.49;65.27;101673.13;3591421;39;20149;-63
2022/08/28 02:17:56;;;;;;;9.00;4.20;;;;;;;16.58;65.52;101691.44;3591231;39;20063;-63
2022/08/28 02:20:23;;;;;;;9.32;4.13;;;;;;;16.60;66.06;101707.63;3590225;39;20056;-63
2022/08/28 02:22:49;;;;;;;8.32;4.10;;;;;;;16.60;65.39;101703.06;3593334;39;20091;-63
2022/08/28 02:25:15;;;;;;;10.40;4.00;;;;;;;16.55;65.48;101705.25;3592188;39;20071;-62
2022/08/28 02:27:43;;;;;;;11.63;4.25;;;;;;;16.56;65.64;101714.28;3593750;39;20365;-66
2022/08/28 02:30:13;;;;;;;11.40;4.00;;;;;;;16.48;66.40;101704.81;3591021;39;20044;-63
2022/08/28 02:32:39;;;;;;;14.75;4.45;;;;;;;16.47;66.54;101713.97;3592269;39;20056;-62
2022/08/28 02:35:09;;;;;;;11.27;4.13;;;;;;;16.26;66.33;101688.38;3589566;39;20125;-63
2022/08/28 02:37:35;;;;;;;10.50;4.03;;;;;;;16.43;66.44;101707.03;3591571;39;20070;-63
2022/08/28 02:40:02;;;;;;;9.77;4.25;;;;;;;16.35;66.58;101709.41;3592357;39;20059;-63
2022/08/28 02:42:28;;;;;;;9.65;3.90;;;;;;;16.35;66.73;101714.84;3591332;39;20416;-63
2022/08/28 02:44:53;;;;;;;11.13;4.30;;;;;;;16.33;66.35;101719.50;3592960;39;20078;-63
2022/08/28 02:47:19;;;;;;;10.82;4.00;;;;;;;16.31;67.20;101721.47;3589005;39;20462;-63
2022/08/28 02:49:45;;;;;;;7.18;4.30;;;;;;;16.29;67.23;101715.28;3591918;39;20386;-63
2022/08/28 02:52:11;;;;;;;10.88;4.20;;;;;;;16.24;66.56;101712.03;3590922;39;20051;-63
2022/08/28 02:54:39;;;;;;;10.18;4.07;;;;;;;16.20;67.32;101711.38;3593062;39;20120;-63
2022/08/28 02:57:07;;;;;;;12.40;4.80;;;;;;;16.18;67.13;101712.47;3589676;39;20063;-63
2022/08/28 02:59:35;;;;;;;10.15;4.30;;;;;;;16.16;67.03;101717.13;3590443;39;20286;-63
2022/08/28 03:02:03;;;;;;;8.48;4.07;;;;;;;16.03;67.60;101700.88;3591345;39;20048;-63
2022/08/28 03:04:30;;;;;;;9.57;4.30;;;;;;;16.07;67.39;101712.38;3593719;39;20303;-63
2022/08/28 03:06:58;;;;;;;13.10;4.32;;;;;;;16.01;68.08;101709.09;3590564;39;20434;-63
2022/08/28 03:09:24;;;;;;;8.55;4.13;;;;;;;15.98;68.27;101717.47;3589254;39;20051;-63
2022/08/28 03:11:52;;;;;;;9.32;4.55;;;;;;;15.94;67.82;101709.66;3592741;39;20095;-64
2022/08/28 03:14:20;;;;;;;10.25;4.20;;;;;;;15.90;68.01;101710.84;3579838;40;20079;-62
2022/08/28 03:16:46;;;;;;;12.05;4.38;;;;;;;15.84;68.52;101717.56;3590201;39;20088;-62
2022/08/28 03:19:12;;;;;;;10.75;4.70;;;;;;;15.79;68.49;101727.84;3593438;39;20056;-62
2022/08/28 03:21:37;;;;;;;8.18;3.75;;;;;;;15.75;68.62;101718.19;3592892;39;20315;-65
2022/08/28 03:24:03;;;;;;;13.30;4.70;;;;;;;15.72;69.15;101727.41;3591014;39;20308;-65
2022/08/28 03:26:30;;;;;;;12.18;4.35;;;;;;;15.68;69.09;101714.19;3592952;39;20068;-65
2022/08/28 03:28:56;;;;;;;11.00;4.28;;;;;;;15.68;69.21;101723.19;3594325;39;20061;-65
2022/08/28 03:31:25;;;;;;;8.80;4.03;;;;;;;15.69;69.01;101733.03;3592413;39;20068;-64
2022/08/28 03:33:53;;;;;;;14.98;4.55;;;;;;;15.36;69.32;101671.16;3591791;39;20340;-64
2022/08/28 03:36:23;;;;;;;11.38;4.22;;;;;;;15.64;69.55;101723.47;3589332;39;20470;-62
2022/08/28 03:38:53;;;;;;;11.70;4.05;;;;;;;15.64;69.75;101740.59;3592354;39;20379;-63
2022/08/28 03:41:23;;;;;;;11.43;4.28;;;;;;;15.62;69.17;101741.69;3590240;39;20059;-63
2022/08/28 03:43:49;;;;;;;9.43;4.07;;;;;;;15.56;69.61;101741.09;3592753;39;20044;-63
2022/08/28 03:46:19;;;;;;;11.95;4.63;;;;;;;15.52;69.34;101734.16;3581681;40;20138;-63
2022/08/28 03:48:45;;;;;;;9.60;4.28;;;;;;;15.52;69.71;101736.88;3591334;39;20052;-63
2022/08/28 03:51:17;;;;;;;9.50;4.30;;;;;;;15.46;70.05;101740.00;3591503;39;20079;-65
2022/08/28 03:53:43;;;;;;;11.48;4.63;;;;;;;15.46;70.17;101740.00;3589978;39;20051;-62
2022/08/28 03:56:15;;;;;;;13.05;4.30;;;;;;;15.46;70.13;101753.56;3587457;39;20129;-62
2022/08/28 03:58:42;;;;;;;9.32;4.40;;;;;;;15.44;70.34;101744.66;3592647;39;20320;-62
2022/08/28 04:01:08;;;;;;;11.10;4.40;;;;;;;15.41;70.37;101747.56;3589339;39;20333;-63
2022/08/28 04:03:35;;;;;;;11.90;4.30;;;;;;;15.39;70.59;101733.28;3592219;39;20317;-62
2022/08/28 04:06:01;;;;;;;9.25;4.40;;;;;;;15.40;70.42;101748.53;3589426;39;20334;-64
2022/08/28 04:08:28;;;;;;;13.20;4.68;;;;;;;15.35;70.59;101745.31;3589587;39;20093;-64
2022/08/28 04:10:55;;;;;;;13.10;4.50;;;;;;;15.25;70.60;101728.75;3592003;39;20078;-65
2022/08/28 04:13:22;;;;;;;9.35;4.50;;;;;;;15.33;70.67;101744.53;3585883;39;20052;-65
2022/08/28 04:16:09;;;;;;;11.13;4.32;;;;;;;15.33;70.59;101749.94;3592035;39;20109;-62
2022/08/28 04:18:37;;;;;;;13.02;4.72;;;;;;;15.22;70.49;101731.72;3592174;39;20283;-62
2022/08/28 04:21:08;;;;;;;10.20;4.53;;;;;;;15.29;70.72;101741.16;3590972;39;20039;-62
2022/08/28 04:23:36;;;;;;;10.75;4.07;;;;;;;15.26;70.77;101740.50;3589913;39;20051;-62
2022/08/28 04:26:07;;;;;;;6.68;3.72;;;;;;;15.25;71.08;101745.00;3589354;39;20051;-62
2022/08/28 04:28:34;;;;;;;9.25;3.90;;;;;;;15.25;71.23;101744.16;3591321;39;20290;-62
2022/08/28 04:31:00;;;;;;;12.05;4.05;;;;;;;15.26;70.99;101751.34;3591253;39;20367;-63
2022/08/28 04:33:27;;;;;;;12.82;4.32;;;;;;;15.22;71.26;101749.78;3589010;39;20195;-64
2022/08/28 04:35:54;;;;;;;9.02;4.38;;;;;;;15.26;71.23;101754.03;3587769;39;20375;-64
2022/08/28 04:38:21;;;;;;;12.23;4.45;;;;;;;15.26;71.06;101756.75;3589532;39;20058;-64
2022/08/28 04:40:47;;;;;;;12.05;4.35;;;;;;;14.90;71.30;101695.91;3590465;39;20394;-63
2022/08/28 04:43:13;;;;;;;8.25;4.53;;;;;;;15.28;71.49;101754.78;3590882;39;20059;-62
2022/08/28 04:45:42;;;;;;;10.63;4.47;;;;;;;15.25;71.02;101755.84;3585594;39;20059;-63
2022/08/28 04:48:11;;;;;;;11.85;4.40;;;;;;;15.26;71.48;101757.63;3588895;39;20054;-62
2022/08/28 04:50:45;;;;;;;11.77;3.90;;;;;;;15.19;71.36;101744.56;3590545;39;20075;-62
2022/08/28 04:53:13;;;;;;;10.85;4.20;;;;;;;15.23;71.61;101763.22;3587440;39;20156;-62
2022/08/28 04:55:46;;;;;;;13.02;4.28;;;;;;;15.24;71.42;101766.81;3591800;39;20059;-62
2022/08/28 04:58:14;;;;;;;11.50;4.10;;;;;;;15.23;71.46;101759.66;3588194;39;20060;-63
2022/08/28 05:00:46;;;;;;;22.05;8.63;;;;;;;15.24;71.57;101764.09;3588145;39;20292;-62
2022/08/28 05:03:15;;;;;;;12.60;4.90;;;;;;;15.28;71.59;101768.34;3585243;39;20071;-62
2022/08/28 05:05:48;;;;;;;13.20;4.40;;;;;;;15.31;71.25;101778.97;3590674;39;20047;-63
2022/08/28 05:08:17;;;;;;;12.25;4.25;;;;;;;15.31;71.38;101770.84;3588121;39;20059;-63
2022/08/28 05:10:45;;;;;;;9.00;4.30;;;;;;;15.30;71.19;101774.53;3587514;39;20052;-62
2022/08/28 05:13:17;;;;;;;10.02;4.80;;;;;;;15.26;70.79;101779.28;3590448;39;20059;-62
2022/08/28 05:15:46;;;;;;;11.18;4.82;;;;;;;15.25;71.24;101784.78;3590708;39;20075;-62
2022/08/28 05:18:14;;;;;;;9.88;4.72;;;;;;;15.25;71.28;101787.50;3587394;39;20119;-62
2022/08/28 05:20:45;;;;;;;9.48;4.20;;;;;;;15.27;71.07;101788.28;3590605;39;20059;-63
2022/08/28 05:23:14;;;;;;;10.35;4.85;;;;;;;15.27;71.12;101785.56;3586523;39;20063;-63
2022/08/28 05:25:46;;;;;;;7.18;4.05;;;;;;;15.28;71.06;101790.00;3590296;39;20132;-62
2022/08/28 05:28:14;;;;;;;9.20;4.18;;;;;;;15.19;71.22;101787.91;3586450;39;20059;-63
2022/08/28 05:30:42;;;;;;;9.45;4.57;;;;;;;15.27;71.48;101796.41;3588260;39;20056;-62
2022/08/28 05:33:12;;;;;;;9.55;4.82;;;;;;;15.28;71.22;101798.13;3591031;39;20055;-62
2022/08/28 05:35:43;;;;;;;10.23;4.63;;;;;;;15.27;70.72;101794.56;3590232;39;20054;-62
2022/08/28 05:38:12;;;;;;;11.93;5.07;;;;;;;15.26;71.24;101802.81;3588464;39;20085;-62
2022/08/28 05:40:48;;;;;;;7.53;4.55;;;;;;;15.25;71.31;101801.91;3588695;39;20099;-62
2022/08/28 05:43:16;;;;;;;12.80;5.05;;;;;;;15.22;71.45;101798.53;3590370;39;20122;-63
2022/08/28 05:45:42;;;;;;;10.45;4.50;;;;;;;15.18;71.23;101791.59;3592217;39;20382;-62
2022/08/28 05:48:09;;;;;;;13.43;5.10;;;;;;;15.03;71.01;101774.50;3592636;39;20059;-62
2022/08/28 05:50:38;;;;;;;11.02;4.72;;;;;;;15.18;71.39;101799.72;3591781;39;20105;-62
2022/08/28 05:53:04;;;;;;;11.35;5.30;;;;;;;15.17;71.92;101798.00;3593317;39;20052;-62
2022/08/28 05:55:29;;;;;;;11.43;5.30;;;;;;;15.15;71.67;101802.63;3590837;39;20504;-62
2022/08/28 05:58:27;;;;;;;11.85;5.43;;;;;;;15.14;71.51;101807.19;3593340;39;20052;-62
2022/08/28 06:00:40;;;;;;;11.07;5.43;;;;;;;15.17;71.74;101801.56;3591009;39;20051;-62
2022/08/28 06:03:06;;;;;;;12.38;5.25;;;;;;;15.19;71.82;101804.16;3586204;39;20167;-62
2022/08/28 06:05:32;;;;;;;10.07;5.55;;;;;;;15.15;72.11;101798.06;3589260;39;20067;-62
2022/08/28 06:07:58;;;;;;;9.93;5.20;;;;;;;15.28;71.37;101812.53;3588365;39;20043;-62
2022/08/28 06:10:23;;;;;;;11.55;5.13;;;;;;;15.35;71.51;101818.44;3589152;39;20293;-62
2022/08/28 06:12:49;;;;;;;10.68;4.53;;;;;;;15.37;71.31;101819.19;3588336;39;20060;-63
2022/08/28 06:15:14;;;;;;;14.90;5.10;;;;;;;15.39;71.19;101819.97;3587299;39;20060;-63
2022/08/28 06:17:40;;;;;;;12.25;5.68;;;;;;;15.46;71.10;101817.72;3592437;39;20054;-63
2022/08/28 06:20:07;;;;;;;14.02;4.97;;;;;;;15.52;71.10;101820.03;3587747;39;20044;-63
2022/08/28 06:22:32;;;;;;;11.07;5.00;;;;;;;15.54;71.16;101821.66;3589558;39;20055;-62
2022/08/28 06:24:58;;;;;;;12.23;4.93;;;;;;;15.59;70.64;101823.19;3589451;39;20075;-63
2022/08/28 06:27:23;;;;;;;8.90;4.78;;;;;;;15.64;70.81;101819.22;3588940;39;20052;-62
2022/08/28 06:29:49;;;;;;;12.57;5.95;;;;;;;15.72;70.86;101824.13;3589368;39;20785;-63
2022/08/28 06:32:15;;;;;;;15.38;7.88;;;;;;;15.75;70.62;101818.50;3590222;39;20075;-63
2022/08/28 06:34:40;;;;;;;13.00;5.35;;;;;;;15.84;70.75;101823.31;3589018;39;20105;-63
2022/08/28 06:37:08;;;;;;;7.72;4.38;;;;;;;15.90;70.55;101824.75;3590729;39;20071;-63
2022/08/28 06:39:33;;;;;;;13.48;4.63;;;;;;;15.98;70.29;101825.97;3589244;39;20052;-63
2022/08/28 06:42:00;;;;;;;10.32;4.10;;;;;;;16.10;69.94;101834.22;3589959;39;20108;-63
2022/08/28 06:44:25;;;;;;;11.40;4.15;;;;;;;16.22;69.60;101836.06;3589187;39;20096;-63
2022/08/28 06:46:53;;;;;;;11.85;4.22;;;;;;;16.35;69.55;101836.94;3589138;39;20328;-63
2022/08/28 06:49:20;;;;;;;13.07;4.22;;;;;;;16.47;68.55;101838.81;3589214;39;20049;-63
2022/08/28 06:51:45;;;;;;;8.65;4.00;;;;;;;16.58;68.35;101829.03;3591708;39;20113;-63
2022/08/28 06:54:11;;;;;;;11.25;3.80;;;;;;;16.79;67.01;101840.25;3588348;39;20318;-63
2022/08/28 06:56:37;;;;;;;10.38;4.18;;;;;;;16.92;67.13;101839.25;3588207;39;20548;-63
2022/08/28 06:59:03;;;;;;;10.82;4.43;;;;;;;17.09;66.17;101840.72;3587550;39;20052;-64
2022/08/28 07:01:35;;;;;;;9.23;4.30;;;;;;;17.27;66.11;101843.94;3590302;39;20299;-65
2022/08/28 07:04:08;;;;;;;9.38;3.85;;;;;;;17.46;66.27;101831.69;3589556;39;20047;-64
2022/08/28 07:06:39;;;;;;;9.88;3.70;;;;;;;17.67;64.39;101840.09;3589146;39;20616;-63
2022/08/28 07:09:12;;;;;;;11.68;4.28;;;;;;;17.85;63.29;101839.56;3586619;39;20330;-64
2022/08/28 07:11:39;;;;;;;8.93;3.90;;;;;;;18.04;62.60;101839.03;3589886;39;20292;-63
2022/08/28 07:14:05;;;;;;;13.52;4.38;;;;;;;18.21;62.38;101839.59;3586459;39;20332;-63
2022/08/28 07:16:37;;;;;;;12.10;3.90;;;;;;;18.43;62.18;101838.78;3589600;39;20088;-63
2022/08/28 07:19:04;;;;;;;7.07;3.53;;;;;;;18.60;61.26;101832.84;3588363;39;20397;-63
2022/08/28 07:21:33;;;;;;;9.07;3.65;;;;;;;18.82;60.64;101836.63;3590785;39;20056;-63
2022/08/28 07:23:58;;;;;;;9.32;3.67;;;;;;;18.97;59.80;101836.25;3589030;39;20611;-63
2022/08/28 07:26:25;;;;;;;10.25;4.13;;;;;;;19.15;59.39;101847.47;3588440;39;20060;-63
2022/08/28 07:28:53;;;;;;;11.20;3.53;;;;;;;19.29;58.91;101834.59;3582711;39;20399;-63
2022/08/28 07:31:24;;;;;;;11.85;3.30;;;;;;;19.44;58.25;101831.47;3587724;39;20052;-63
2022/08/28 07:33:51;;;;;;;10.43;3.20;;;;;;;19.67;58.04;101843.22;3585797;39;20052;-63
2022/08/28 07:36:21;;;;;;;11.13;3.50;;;;;;;19.86;57.39;101855.31;3589091;39;20064;-63
2022/08/28 07:38:47;;;;;;;10.82;3.38;;;;;;;20.06;56.47;101851.72;3589550;39;20051;-63
2022/08/28 07:41:20;;;;;;;9.05;2.95;;;;;;;20.22;55.59;101854.00;3587997;39;20386;-63
2022/08/28 07:46:32;;;;;;;9.90;3.10;;;;;;;20.52;54.23;101861.44;3588501;39;20106;-63
2022/08/28 07:48:58;;;;;;;8.45;3.95;;;;;;;20.63;53.29;101857.75;3587965;39;20341;-63
2022/08/28 07:51:26;;;;;;;8.68;3.03;;;;;;;20.64;52.74;101843.94;3592168;39;20040;-64
2022/08/28 07:53:53;;;;;;;6.72;2.50;;;;;;;20.81;52.84;101861.59;3586472;39;20048;-63
2022/08/28 07:56:19;;;;;;;10.23;2.97;;;;;;;20.92;52.24;101860.63;3591863;39;20068;-63
2022/08/28 07:58:47;;;;;;;7.70;2.63;;;;;;;21.02;52.01;101868.88;3589465;39;20055;-63
2022/08/28 08:01:14;;;;;;;8.35;2.50;;;;;;;21.04;52.47;101856.78;3586442;39;20439;-63
2022/08/28 08:03:39;;;;;;;7.40;2.58;;;;;;;21.29;51.78;101865.53;3584595;39;20045;-63
2022/08/28 08:06:06;;;;;;;8.40;2.85;;;;;;;21.45;50.89;101871.34;3590502;39;20062;-63
2022/08/28 08:08:33;;;;;;;8.88;3.47;;;;;;;21.53;50.53;101862.44;3587026;39;20091;-63
2022/08/28 08:11:04;;;;;;;9.70;2.83;;;;;;;21.59;50.07;101874.69;3586198;39;20070;-63
2022/08/28 08:13:32;;;;;;;7.05;2.35;;;;;;;21.50;49.57;101844.44;3586525;39;20301;-64
2022/08/28 08:16:08;;;;;;;9.73;2.25;;;;;;;21.66;49.87;101863.06;3587009;39;20065;-63
2022/08/28 08:18:34;;;;;;;5.80;2.22;;;;;;;21.82;49.93;101876.19;3588672;39;20052;-62
2022/08/28 08:21:03;;;;;;;6.68;2.25;;;;;;;21.82;48.30;101876.19;3587267;39;20058;-62
2022/08/28 08:23:29;;;;;;;4.93;1.75;;;;;;;21.70;48.62;101882.78;3586860;39;20130;-62
2022/08/28 08:26:06;;;;;;;9.60;2.40;;;;;;;21.47;48.50;101883.03;3586886;39;20048;-62
2022/08/28 08:28:36;;;;;;;6.07;2.10;;;;;;;21.18;48.42;101885.63;3590663;39;20129;-62
2022/08/28 08:31:21;;;;;;;11.27;4.18;;;;;;;20.88;49.23;101880.19;3589242;39;20203;-62
2022/08/28 08:33:51;;;;;;;7.82;2.80;;;;;;;20.76;49.57;101885.72;3587534;39;20291;-62
2022/08/28 08:36:21;;;;;;;6.65;2.10;;;;;;;20.70;50.31;101905.38;3590792;39;20153;-61
2022/08/28 08:38:48;;;;;;;6.03;2.00;;;;;;;20.61;50.62;101887.94;3589582;39;20048;-61
2022/08/28 08:41:29;;;;;;;7.47;2.22;;;;;;;20.55;50.07;101877.56;3591924;39;20523;-61
2022/08/28 08:44:04;;;;;;;6.38;2.20;;;;;;;20.53;50.19;101887.75;3588914;39;20044;-61
2022/08/28 08:46:39;;;;;;;6.03;2.05;;;;;;;20.41;51.05;101886.03;3590930;39;20068;-62
2022/08/28 08:49:17;;;;;;;6.80;2.03;;;;;;;20.58;51.46;101871.81;3588343;39;20497;-63
2022/08/28 08:51:52;;;;;;;4.80;2.03;;;;;;;20.95;50.81;101874.00;3593438;39;20072;-62
2022/08/28 08:54:20;;;;;;;6.93;2.40;;;;;;;21.23;50.14;101883.34;3592274;39;20051;-63
2022/08/28 08:56:50;;;;;;;5.15;1.75;;;;;;;21.59;49.47;101856.41;3591431;39;20056;-63
2022/08/28 08:59:22;;;;;;;14.13;7.45;;;;;;;22.14;48.43;101875.91;3590664;39;20059;-63
2022/08/28 09:02:05;;;;;;;9.05;2.58;;;;;;;22.57;47.15;101874.56;3587387;39;20046;-63
2022/08/28 09:05:05;;;;;;;6.15;2.05;;;;;;;23.09;45.36;101864.03;3588668;39;20314;-63
2022/08/28 09:07:55;;;;;;;4.10;2.05;;;;;;;23.60;45.44;101872.72;3589291;39;20396;-63
2022/08/28 09:10:33;;;;;;;4.68;2.10;;;;;;;23.91;44.68;101875.09;3588729;39;20083;-62
2022/08/28 09:13:58;;;;;;;6.20;1.95;;;;;;;24.15;43.34;101880.84;3588867;39;20059;-61
2022/08/28 09:16:37;;;;;;;3.97;1.63;;;;;;;23.96;42.27;101873.63;3586299;39;20052;-62
2022/08/28 09:19:10;;;;;;;3.38;2.03;;;;;;;23.85;42.25;101885.72;3590353;39;20052;-62
2022/08/28 09:21:41;;;;;;;5.70;2.08;;;;;;;23.78;42.14;101862.63;3590615;39;20056;-62
2022/08/28 09:24:27;;;;;;;7.85;2.10;;;;;;;23.97;42.29;101877.22;3590107;39;20052;-61
2022/08/28 09:27:24;;;;;;;4.22;1.70;;;;;;;24.20;42.17;101880.34;3591627;39;20369;-63
2022/08/28 09:30:05;;;;;;;5.40;2.03;;;;;;;24.42;42.69;101876.28;3585353;39;20063;-64
2022/08/28 09:32:37;;;;;;;4.68;1.83;;;;;;;24.68;40.86;101874.41;3590530;39;20056;-64
2022/08/28 09:35:28;;;;;;;6.37;1.73;;;;;;;24.96;39.74;101875.09;3589096;39;20047;-62
2022/08/28 09:38:15;;;;;;;5.03;2.15;;;;;;;25.29;40.16;101872.53;3593165;39;20051;-62
2022/08/28 09:43:27;;;;;;;9.95;2.40;;;;;;;25.73;38.24;101868.72;3588677;39;20304;-64
2022/08/28 09:46:23;;;;;;;3.58;1.75;;;;;;;25.82;38.55;101873.25;3590761;39;20445;-64
2022/08/28 09:48:53;;;;;;;5.65;1.77;;;;;;;25.95;37.85;101873.59;3591651;39;20052;-63
2022/08/28 09:51:21;;;;;;;5.40;1.98;;;;;;;26.15;36.98;101874.13;3590087;39;20052;-64
2022/08/28 09:53:53;;;;;;;4.90;1.95;;;;;;;26.35;38.00;101877.38;3588824;39;20107;-64
2022/08/28 09:56:38;;;;;;;4.88;2.13;;;;;;;26.44;36.35;101875.50;3591271;39;20045;-65
2022/08/28 09:59:19;;;;;;;5.88;1.75;;;;;;;26.37;36.43;101878.09;3589013;39;20356;-66
2022/08/28 10:02:10;;;;;;;4.70;1.70;;;;;;;26.34;36.79;101883.94;3588102;39;20198;-66
2022/08/28 10:04:56;;;;;;;5.32;1.73;;;;;;;26.23;36.12;101881.53;3587923;39;20053;-66
2022/08/28 10:08:00;;;;;;;3.60;1.88;;;;;;;25.99;36.89;101872.22;3589194;39;20055;-66
2022/08/28 10:10:34;;;;;;;6.63;1.90;;;;;;;26.05;37.45;101874.28;3585961;39;20048;-66
2022/08/28 10:13:27;;;;;;;2.97;1.50;;;;;;;26.10;35.83;101877.41;3588652;39;20181;-66
2022/08/28 10:15:59;;;;;;;6.03;1.73;;;;;;;26.14;35.62;101883.44;3590579;39;20051;-66
2022/08/28 10:19:34;;;;;;;3.47;1.70;;;;;;;26.14;35.78;101878.78;3589547;39;20051;-66
2022/08/28 10:22:42;;;;;;;3.00;1.60;;;;;;;26.34;34.92;101872.91;3586035;39;20406;-64
2022/08/28 10:25:22;;;;;;;6.88;2.50;;;;;;;26.49;35.38;101870.38;3589812;39;20059;-64
2022/08/28 10:28:21;;;;;;;3.40;1.48;;;;;;;26.85;35.27;101870.81;3588916;39;20048;-64
2022/08/28 10:31:28;;;;;;;3.72;1.70;;;;;;;27.11;34.99;101880.72;3587783;39;20125;-65
2022/08/28 10:34:38;;;;;;;4.70;2.70;;;;;;;27.36;34.02;101873.25;3587452;39;20056;-65
2022/08/28 10:37:27;;;;;;;6.50;1.80;;;;;;;27.52;33.53;101874.00;3576408;39;20052;-64
2022/08/28 10:40:02;;;;;;;4.13;1.73;;;;;;;27.19;34.46;101878.84;3589309;39;20060;-65
2022/08/28 10:42:40;;;;;;;2.65;1.45;;;;;;;26.67;34.47;101870.16;3588027;39;20388;-65
2022/08/28 10:45:12;;;;;;;5.63;1.95;;;;;;;26.24;35.93;101877.75;3586420;39;20058;-64
2022/08/28 10:47:47;;;;;;;5.03;1.73;;;;;;;25.95;36.60;101868.09;3591972;39;20044;-65
2022/08/28 10:50:28;;;;;;;5.05;2.03;;;;;;;25.83;36.96;101869.44;3587455;39;20063;-66
2022/08/28 10:53:07;;;;;;;4.68;1.90;;;;;;;26.08;35.40;101878.59;3590903;39;20063;-65
2022/08/28 10:55:56;;;;;;;3.53;1.55;;;;;;;26.40;35.52;101873.09;3585128;40;20141;-65
2022/08/28 10:58:26;;;;;;;3.03;1.48;;;;;;;26.67;36.01;101872.91;3591542;39;20056;-65
2022/08/28 11:01:04;;;;;;;5.45;1.80;;;;;;;27.20;35.07;101874.16;3579228;39;20048;-64
2022/08/28 11:03:46;;;;;;;4.70;2.10;;;;;;;27.69;33.75;101865.66;3589221;39;20052;-64
2022/08/28 11:06:40;;;;;;;5.75;1.65;;;;;;;27.78;33.25;101870.09;3590704;39;20056;-65
2022/08/28 11:09:25;;;;;;;;;;;;;;;27.35;32.69;101872.38;3588896;39;20052;-65
2022/08/28 11:12:08;;;;;;;4.45;1.85;;;;;;;27.01;33.96;101876.28;3587305;39;19932;-65
2022/08/28 11:14:43;;;;;;;4.60;1.75;;;;;;;26.36;35.43;101855.19;3592481;39;20055;-63
2022/08/28 11:17:20;;;;;;;3.25;1.75;;;;;;;25.99;36.26;101880.50;3588226;39;20055;-63
2022/08/28 11:20:04;;;;;;;3.13;1.80;;;;;;;25.51;36.97;101878.47;3587664;39;20056;-64
2022/08/28 11:22:45;;;;;;;4.72;1.80;;;;;;;25.55;36.20;101877.94;3591992;39;20325;-64
2022/08/28 11:25:40;;;;;;;5.32;2.95;;;;;;;26.02;36.76;101874.63;3589144;39;20398;-64
2022/08/28 11:28:24;;;;;;;4.22;1.45;;;;;;;26.40;35.42;101869.47;3588746;39;20747;-64
2022/08/28 11:31:04;;;;;;;6.18;1.85;;;;;;;26.91;33.57;101872.84;3590661;39;20035;-64
2022/08/28 11:33:47;;;;;;;2.65;2.03;;;;;;;27.43;34.90;101875.09;3590248;39;20051;-64
2022/08/28 11:36:18;;;;;;;4.80;1.80;;;;;;;28.07;33.64;101872.16;3589260;39;20056;-66
2022/08/28 11:38:44;;;;;;;3.17;1.42;;;;;;;28.41;31.39;101868.91;3589154;39;20058;-68
2022/08/28 11:41:26;;;;;;;3.67;1.70;;;;;;;28.80;32.15;101867.84;3589057;39;20040;-65
2022/08/28 11:44:12;;;;;;;3.67;1.65;;;;;;;28.91;30.81;101870.13;3587252;39;20063;-65
2022/08/28 11:46:45;;;;;;;3.70;1.60;;;;;;;28.51;32.08;101865.88;3588470;39;20056;-65
2022/08/28 11:49:23;;;;;;;3.60;1.80;;;;;;;28.09;30.94;101858.13;3586982;39;20335;-65
2022/08/28 11:52:30;;;;;;;6.05;1.60;;;;;;;28.29;30.87;101873.19;3586750;39;20136;-65
2022/08/28 11:55:49;;;;;;;3.35;1.60;;;;;;;27.96;32.59;101869.78;3589515;39;20109;-65